Time;durP1;ratioP1;P1;durP2;ratioP2;P2;SDS_P1;SDS_P2;PMS_P1;PMS_P2;Temp;Humidity;BMP_temperature;BMP_pressure;BME280_temperature;BME280_humidity;BME280_pressure;Samples;Min_cycle;Max_cycle;Signal;HPM_P1;HPM_P2
2022/12/12 00:00:46;;;;;;;;;;;9.20;77.00;;;;;;5045968;28;81939;-40
2022/12/12 00:03:11;;;;;;;;;;;9.20;77.00;;;;;;5048436;28;82947;-39
2022/12/12 00:05:37;;;;;;;;;;;9.20;77.00;;;;;;5045204;28;83756;-39
2022/12/12 00:08:02;;;;;;;;;;;9.20;77.00;;;;;;5045509;27;82556;-39
2022/12/12 00:10:28;;;;;;;;;;;9.20;77.00;;;;;;5049423;27;82089;-39
2022/12/12 00:12:53;;;;;;;;;;;9.20;76.90;;;;;;5049201;28;82708;-39
2022/12/12 00:15:19;;;;;;;;;;;9.10;76.90;;;;;;5049069;28;84512;-39
2022/12/12 00:17:44;;;;;;;;;;;9.10;76.90;;;;;;5049252;28;81980;-39
2022/12/12 00:20:10;;;;;;;;;;;9.20;76.80;;;;;;5049279;27;82069;-39
2022/12/12 00:22:35;;;;;;;;;;;9.10;76.80;;;;;;5052295;28;82246;-39
2022/12/12 00:25:01;;;;;;;;;;;9.10;76.80;;;;;;5049189;28;82119;-39
2022/12/12 00:27:26;;;;;;;;;;;9.10;76.80;;;;;;5048900;28;82868;-39
2022/12/12 00:29:52;;;;;;;;;;;9.10;76.90;;;;;;5048578;28;82942;-39
2022/12/12 00:32:18;;;;;;;;;;;9.10;77.00;;;;;;5049087;28;83437;-39
2022/12/12 00:34:44;;;;;;;;;;;9.00;76.80;;;;;;5048832;28;83103;-40
2022/12/12 00:37:09;;;;;;;;;;;9.10;76.80;;;;;;5049264;28;82039;-39
2022/12/12 00:39:35;;;;;;;;;;;9.00;76.90;;;;;;5049038;27;82340;-39
2022/12/12 00:42:00;;;;;;;;;;;9.00;76.80;;;;;;5048244;28;84055;-39
2022/12/12 00:44:26;;;;;;;;;;;9.00;76.80;;;;;;5051472;28;82134;-40
2022/12/12 00:46:51;;;;;;;;;;;9.00;76.80;;;;;;5048400;28;81577;-39
2022/12/12 00:49:17;;;;;;;;;;;9.00;76.80;;;;;;5048769;28;82028;-40
2022/12/12 00:51:42;;;;;;;;;;;9.00;76.90;;;;;;5048714;28;82023;-39
2022/12/12 00:54:08;;;;;;;;;;;9.00;76.80;;;;;;5047913;28;83967;-40
2022/12/12 00:56:34;;;;;;;;;;;9.00;76.80;;;;;;5048725;28;81941;-39
2022/12/12 00:59:00;;;;;;;;;;;8.90;76.90;;;;;;5048336;28;83786;-39
2022/12/12 01:01:27;;;;;;;;;;;8.90;76.80;;;;;;5048401;28;83144;-39
2022/12/12 01:03:53;;;;;;;;;;;8.90;76.70;;;;;;5048022;28;82010;-39
2022/12/12 01:06:18;;;;;;;;;;;8.90;76.70;;;;;;5050735;28;83762;-39
2022/12/12 01:08:44;;;;;;;;;;;8.90;76.70;;;;;;5048407;28;81981;-39
2022/12/12 01:11:10;;;;;;;;;;;8.90;76.70;;;;;;5048997;28;82331;-39
2022/12/12 01:13:36;;;;;;;;;;;8.90;76.70;;;;;;5048410;28;82228;-39
2022/12/12 01:16:02;;;;;;;;;;;8.90;76.70;;;;;;5048532;28;82066;-39
2022/12/12 01:18:27;;;;;;;;;;;8.90;76.70;;;;;;5047960;28;82990;-39
2022/12/12 01:20:53;;;;;;;;;;;8.80;77.30;;;;;;5047668;27;82622;-39
2022/12/12 01:23:18;;;;;;;;;;;8.90;76.70;;;;;;5048464;28;82528;-39
2022/12/12 01:25:44;;;;;;;;;;;8.80;76.60;;;;;;5048519;28;82462;-39
2022/12/12 01:28:10;;;;;;;;;;;8.80;76.60;;;;;;5050783;28;83229;-39
2022/12/12 01:30:35;;;;;;;;;;;8.80;76.70;;;;;;5048297;28;82533;-39
2022/12/12 01:33:02;;;;;;;;;;;8.80;76.70;;;;;;5047963;28;83046;-39
2022/12/12 01:35:28;;;;;;;;;;;8.80;76.70;;;;;;5048089;28;81370;-39
2022/12/12 01:37:53;;;;;;;;;;;8.70;76.70;;;;;;5048224;28;81887;-39
2022/12/12 01:40:21;;;;;;;;;;;8.70;76.70;;;;;;5047881;27;82951;-39
2022/12/12 01:42:47;;;;;;;;;;;8.70;76.70;;;;;;5047086;28;82983;-39
2022/12/12 01:45:31;;;;;;;;;;;8.70;76.70;;;;;;5048021;28;83296;-40
2022/12/12 01:47:57;;;;;;;;;;;8.70;76.80;;;;;;5047221;28;82908;-39
2022/12/12 01:50:22;;;;;;;;;;;8.70;76.80;;;;;;5050736;28;81865;-39
2022/12/12 01:52:48;;;;;;;;;;;8.70;76.80;;;;;;5047891;28;83106;-39
2022/12/12 01:55:16;;;;;;;;;;;8.70;76.60;;;;;;5047911;28;82094;-39
2022/12/12 01:57:44;;;;;;;;;;;8.60;76.90;;;;;;5047916;28;82262;-40
2022/12/12 02:00:10;;;;;;;;;;;8.60;76.80;;;;;;5047762;28;83568;-39
2022/12/12 02:02:36;;;;;;;;;;;8.60;76.80;;;;;;5047231;28;82089;-39
2022/12/12 02:05:06;;;;;;;;;;;8.60;76.80;;;;;;5047701;28;82512;-39
2022/12/12 02:07:32;;;;;;;;;;;8.60;76.70;;;;;;5046512;28;84463;-39
2022/12/12 02:09:58;;;;;;;;;;;8.60;76.60;;;;;;5047570;28;82029;-39
2022/12/12 02:12:23;;;;;;;;;;;8.60;76.70;;;;;;5050366;28;81928;-39
2022/12/12 02:14:51;;;;;;;;;;;8.60;76.70;;;;;;5047640;28;82108;-39
2022/12/12 02:17:16;;;;;;;;;;;8.60;76.70;;;;;;5047396;27;82062;-39
2022/12/12 02:19:54;;;;;;;;;;;8.60;76.90;;;;;;5047328;28;81922;-39
2022/12/12 02:22:19;;;;;;;;;;;8.50;76.70;;;;;;5047382;28;81778;-39
2022/12/12 02:25:03;;;;;;;;;;;8.50;76.80;;;;;;5047834;28;82394;-40
2022/12/12 02:27:52;;;;;;;;;;;8.50;76.70;;;;;;5047197;28;83071;-39
2022/12/12 02:30:23;;;;;;;;;;;8.50;76.70;;;;;;5038232;27;81945;-39
2022/12/12 02:32:51;;;;;;;;;;;8.50;76.60;;;;;;5048406;28;82876;-39
2022/12/12 02:35:25;;;;;;;;;;;8.50;77.00;;;;;;5047287;28;82063;-39
2022/12/12 02:37:54;;;;;;;;;;;8.50;76.90;;;;;;5047335;28;82468;-39
2022/12/12 02:40:19;;;;;;;;;;;8.50;76.70;;;;;;5046910;28;83031;-38
2022/12/12 02:42:50;;;;;;;;;;;8.50;76.80;;;;;;5046880;28;82084;-39
2022/12/12 02:45:28;;;;;;;;;;;8.40;76.70;;;;;;5047097;28;81969;-39
2022/12/12 02:47:58;;;;;;;;;;;8.40;76.70;;;;;;5046252;28;84267;-39
2022/12/12 02:50:26;;;;;;;;;;;8.40;76.80;;;;;;5047225;28;81391;-39
2022/12/12 02:52:51;;;;;;;;;;;8.40;76.60;;;;;;5046823;27;82103;-39
2022/12/12 02:55:17;;;;;;;;;;;8.40;76.60;;;;;;5049357;28;82132;-39
2022/12/12 02:57:43;;;;;;;;;;;8.40;76.60;;;;;;5046572;28;82942;-39
2022/12/12 03:00:18;;;;;;;;;;;8.40;76.60;;;;;;5046300;28;84858;-39
2022/12/12 03:02:43;;;;;;;;;;;8.40;76.80;;;;;;5046690;28;81993;-39
2022/12/12 03:08:08;;;;;;;;;;;8.40;76.60;;;;;;5046550;28;82090;-39
2022/12/12 03:10:49;;;;;;;;;;;8.40;76.60;;;;;;5046639;28;82112;-39
2022/12/12 03:13:17;;;;;;;;;;;8.30;76.60;;;;;;5046562;28;82476;-39
2022/12/12 03:16:01;;;;;;;;;;;8.30;76.50;;;;;;5046857;28;82100;-39
2022/12/12 03:18:36;;;;;;;;;;;8.30;76.80;;;;;;5049297;28;81994;-39
2022/12/12 03:21:06;;;;;;;;;;;8.30;76.60;;;;;;5046452;28;83102;-39
2022/12/12 03:23:43;;;;;;;;;;;8.30;76.70;;;;;;5045826;28;82900;-39
2022/12/12 03:26:15;;;;;;;;;;;8.30;76.60;;;;;;5046208;28;83344;-39
2022/12/12 03:28:40;;;;;;;;;;;8.30;76.70;;;;;;5046226;28;83017;-39
2022/12/12 03:31:08;;;;;;;;;;;8.20;76.70;;;;;;5046392;28;82102;-39
2022/12/12 03:33:47;;;;;;;;;;;8.20;76.60;;;;;;5046120;28;83847;-39
2022/12/12 03:36:41;;;;;;;;;;;8.20;76.60;;;;;;5045913;28;83051;-39
2022/12/12 03:39:25;;;;;;;;;;;8.20;76.60;;;;;;5032300;28;82292;-39
2022/12/12 03:41:55;;;;;;;;;;;8.20;76.60;;;;;;5049101;28;81607;-39
2022/12/12 03:44:41;;;;;;;;;;;8.20;76.60;;;;;;5045632;28;82529;-38
2022/12/12 03:47:09;;;;;;;;;;;8.20;76.50;;;;;;5044571;28;82268;-39
2022/12/12 03:49:37;;;;;;;;;;;8.20;76.60;;;;;;5044951;28;83081;-39
2022/12/12 03:52:16;;;;;;;;;;;8.20;76.60;;;;;;5045974;28;82041;-39
2022/12/12 03:54:47;;;;;;;;;;;8.20;76.60;;;;;;5046004;28;82475;-39
2022/12/12 03:57:18;;;;;;;;;;;8.10;76.60;;;;;;5045808;28;82991;-39
2022/12/12 03:59:46;;;;;;;;;;;8.10;76.60;;;;;;5045542;28;81901;-39
2022/12/12 04:02:15;;;;;;;;;;;8.10;76.70;;;;;;5045827;28;82374;-39
2022/12/12 04:05:00;;;;;;;;;;;8.10;76.70;;;;;;5048373;28;83107;-39
2022/12/12 04:07:29;;;;;;;;;;;8.10;76.60;;;;;;5013975;28;82265;-39
2022/12/12 04:13:02;;;;;;;;;;;8.10;76.60;;;;;;5046118;28;81830;-39
2022/12/12 04:15:30;;;;;;;;;;;8.10;76.60;;;;;;5045086;28;83741;-40
2022/12/12 04:18:13;;;;;;;;;;;8.00;76.80;;;;;;5045620;28;83077;-39
2022/12/12 04:23:25;;;;;;;;;;;8.00;76.70;;;;;;5045935;28;82062;-39
2022/12/12 04:28:53;;;;;;;;;;;8.00;76.70;;;;;;5048372;28;82072;-39
2022/12/12 04:31:22;;;;;;;;;;;8.00;76.60;;;;;;5045214;28;82965;-39
2022/12/12 04:33:49;;;;;;;;;;;7.90;76.60;;;;;;5045907;28;81443;-39
2022/12/12 04:36:16;;;;;;;;;;;7.90;76.60;;;;;;5045523;28;82287;-39
2022/12/12 04:38:44;;;;;;;;;;;7.90;76.70;;;;;;5045185;28;82682;-39
2022/12/12 04:41:11;;;;;;;;;;;7.90;76.60;;;;;;5044891;28;83110;-39
2022/12/12 04:43:37;;;;;;;;;;;7.90;76.70;;;;;;5044892;28;83401;-39
2022/12/12 04:46:05;;;;;;;;;;;7.90;76.70;;;;;;5044960;28;82233;-38
2022/12/12 04:49:00;;;;;;;;;;;7.90;76.60;;;;;;5047743;28;81979;-39
2022/12/12 04:51:29;;;;;;;;;;;7.90;76.60;;;;;;5030963;28;82816;-39
2022/12/12 04:54:14;;;;;;;;;;;7.90;76.50;;;;;;5045142;27;82175;-39
2022/12/12 04:56:44;;;;;;;;;;;7.90;76.60;;;;;;5047717;28;82056;-39
2022/12/12 04:59:09;;;;;;;;;;;7.80;76.60;;;;;;5048667;28;83747;-39
2022/12/12 05:01:53;;;;;;;;;;;7.80;76.70;;;;;;5048620;28;82134;-39
2022/12/12 05:04:48;;;;;;;;;;;7.80;76.60;;;;;;5048675;28;82370;-38
2022/12/12 05:07:34;;;;;;;;;;;7.80;76.70;;;;;;5033509;28;83902;-38
2022/12/12 05:09:59;;;;;;;;;;;7.80;76.80;;;;;;5036974;28;83129;-39
2022/12/12 05:12:25;;;;;;;;;;;7.80;76.70;;;;;;5051068;28;82375;-39
2022/12/12 05:14:51;;;;;;;;;;;7.80;76.70;;;;;;5048304;28;82058;-39
2022/12/12 05:17:21;;;;;;;;;;;7.80;76.70;;;;;;5048391;28;83014;-39
2022/12/12 05:19:46;;;;;;;;;;;7.70;76.60;;;;;;5048243;28;84403;-39
2022/12/12 05:22:12;;;;;;;;;;;7.70;76.80;;;;;;5048262;28;82491;-39
2022/12/12 05:24:37;;;;;;;;;;;7.70;76.80;;;;;;5048853;28;81575;-39
2022/12/12 05:27:04;;;;;;;;;;;7.70;76.80;;;;;;5048026;28;83077;-39
2022/12/12 05:29:30;;;;;;;;;;;7.60;76.90;;;;;;5048169;28;81985;-39
2022/12/12 05:31:56;;;;;;;;;;;7.60;76.80;;;;;;5047654;28;82820;-39
2022/12/12 05:34:22;;;;;;;;;;;7.70;76.70;;;;;;5050633;28;83254;-39
2022/12/12 05:36:47;;;;;;;;;;;7.60;76.70;;;;;;5048177;28;82692;-39
2022/12/12 05:39:13;;;;;;;;;;;7.70;76.70;;;;;;5047718;28;84377;-39
2022/12/12 05:41:38;;;;;;;;;;;7.60;76.60;;;;;;5048026;28;82096;-39
2022/12/12 05:44:04;;;;;;;;;;;7.60;76.60;;;;;;5047966;28;82396;-39
2022/12/12 05:46:29;;;;;;;;;;;7.60;76.60;;;;;;5047346;28;82985;-39
2022/12/12 05:48:55;;;;;;;;;;;7.60;76.50;;;;;;5048296;28;81211;-39
2022/12/12 05:51:21;;;;;;;;;;;7.60;76.50;;;;;;5047668;28;82988;-39
2022/12/12 05:53:46;;;;;;;;;;;7.60;76.60;;;;;;5047348;28;84517;-39
2022/12/12 05:56:12;;;;;;;;;;;7.60;76.60;;;;;;5050008;28;82945;-39
2022/12/12 05:58:41;;;;;;;;;;;7.60;76.70;;;;;;5047481;28;83021;-39
2022/12/12 06:01:07;;;;;;;;;;;7.60;77.30;;;;;;5047598;28;81889;-39
2022/12/12 06:03:32;;;;;;;;;;;7.50;76.80;;;;;;5047832;28;81915;-39
2022/12/12 06:05:58;;;;;;;;;;;7.50;76.70;;;;;;5047430;27;83092;-39
2022/12/12 06:08:23;;;;;;;;;;;7.50;76.70;;;;;;5047624;28;82408;-39
2022/12/12 06:10:49;;;;;;;;;;;7.50;76.60;;;;;;5047627;28;82442;-39
2022/12/12 06:13:14;;;;;;;;;;;7.50;76.60;;;;;;5047646;28;82716;-39
2022/12/12 06:15:40;;;;;;;;;;;7.50;76.70;;;;;;5047522;28;83031;-39
2022/12/12 06:18:07;;;;;;;;;;;7.50;76.60;;;;;;5050133;28;82318;-39
2022/12/12 06:20:33;;;;;;;;;;;7.50;76.60;;;;;;5046756;28;83035;-39
2022/12/12 06:22:58;;;;;;;;;;;7.50;76.70;;;;;;5047277;28;83225;-39
2022/12/12 06:25:24;;;;;;;;;;;7.50;76.60;;;;;;5047121;28;82395;-39
2022/12/12 06:27:50;;;;;;;;;;;7.40;76.80;;;;;;5047079;28;82538;-39
2022/12/12 06:30:15;;;;;;;;;;;7.40;76.70;;;;;;5046840;27;83142;-39
2022/12/12 06:32:41;;;;;;;;;;;7.40;76.80;;;;;;5047357;28;83122;-38
2022/12/12 06:35:07;;;;;;;;;;;7.40;76.90;;;;;;5047165;28;82077;-39
2022/12/12 06:37:33;;;;;;;;;;;7.40;77.00;;;;;;5050265;28;82515;-39
2022/12/12 06:39:59;;;;;;;;;;;7.40;77.00;;;;;;5047170;28;82005;-38
2022/12/12 06:42:24;;;;;;;;;;;7.30;77.00;;;;;;5047040;28;82729;-39
2022/12/12 06:44:50;;;;;;;;;;;7.30;77.00;;;;;;5045762;28;84022;-39
2022/12/12 06:47:15;;;;;;;;;;;7.30;77.00;;;;;;5046578;28;82072;-39
2022/12/12 06:49:41;;;;;;;;;;;7.30;76.90;;;;;;5047087;28;82357;-39
2022/12/12 06:52:06;;;;;;;;;;;7.30;77.00;;;;;;5046661;28;82102;-38
2022/12/12 06:54:32;;;;;;;;;;;7.30;76.80;;;;;;5046731;28;81761;-39
2022/12/12 06:56:57;;;;;;;;;;;7.30;77.00;;;;;;5046596;28;83513;-39
2022/12/12 06:59:23;;;;;;;;;;;7.30;77.00;;;;;;5049253;28;83086;-39
2022/12/12 07:01:49;;;;;;;;;;;7.30;77.10;;;;;;5046852;28;83919;-39
2022/12/12 07:04:14;;;;;;;;;;;7.30;77.00;;;;;;5046590;28;83091;-39
2022/12/12 07:06:40;;;;;;;;;;;7.20;77.00;;;;;;5046367;28;82119;-39
2022/12/12 07:09:05;;;;;;;;;;;7.20;77.10;;;;;;5046028;28;82830;-39
2022/12/12 07:11:31;;;;;;;;;;;7.30;77.10;;;;;;5046345;28;82997;-38
2022/12/12 07:13:58;;;;;;;;;;;7.20;77.10;;;;;;5046680;28;82215;-39
2022/12/12 07:16:24;;;;;;;;;;;7.30;77.00;;;;;;5046658;28;82778;-38
2022/12/12 07:18:49;;;;;;;;;;;7.20;77.00;;;;;;5045529;27;84494;-39
2022/12/12 07:21:16;;;;;;;;;;;7.20;77.10;;;;;;5049295;28;81979;-39
2022/12/12 07:23:41;;;;;;;;;;;7.20;77.20;;;;;;5046181;28;83044;-39
2022/12/12 07:26:08;;;;;;;;;;;7.20;77.10;;;;;;5046911;28;81259;-39
2022/12/12 07:28:34;;;;;;;;;;;7.20;77.10;;;;;;5046142;28;81831;-39
2022/12/12 07:31:03;;;;;;;;;;;7.20;77.20;;;;;;5046208;27;83024;-39
2022/12/12 07:33:29;;;;;;;;;;;7.20;77.20;;;;;;5045420;28;82995;-39
2022/12/12 07:35:58;;;;;;;;;;;7.20;77.30;;;;;;5046299;28;83471;-39
2022/12/12 07:38:24;;;;;;;;;;;7.10;77.20;;;;;;5045787;28;84352;-39
2022/12/12 07:40:49;;;;;;;;;;;7.20;77.30;;;;;;5046184;28;82365;-39
2022/12/12 07:43:15;;;;;;;;;;;7.20;77.00;;;;;;5048563;28;82179;-39
2022/12/12 07:45:44;;;;;;;;;;;7.10;77.10;;;;;;5046127;28;82526;-39
2022/12/12 07:48:10;;;;;;;;;;;7.20;77.20;;;;;;5045697;28;83736;-39
2022/12/12 07:50:38;;;;;;;;;;;7.10;77.20;;;;;;5046513;28;81379;-39
2022/12/12 07:53:04;;;;;;;;;;;7.10;77.10;;;;;;5045938;28;81995;-39
2022/12/12 07:55:30;;;;;;;;;;;7.10;77.00;;;;;;5046076;28;82333;-39
2022/12/12 07:57:56;;;;;;;;;;;7.10;77.10;;;;;;5044786;28;83787;-39
2022/12/12 08:00:21;;;;;;;;;;;7.10;77.10;;;;;;5045743;28;82132;-38
2022/12/12 08:02:47;;;;;;;;;;;7.10;77.10;;;;;;5046134;28;82268;-39
2022/12/12 08:05:13;;;;;;;;;;;7.10;77.20;;;;;;5048298;28;83456;-38
2022/12/12 08:07:38;;;;;;;;;;;7.10;77.20;;;;;;5046087;28;82301;-39
2022/12/12 08:10:04;;;;;;;;;;;7.10;77.30;;;;;;5045509;28;84583;-39
2022/12/12 08:12:30;;;;;;;;;;;7.00;77.30;;;;;;5045652;28;82083;-39
2022/12/12 08:14:56;;;;;;;;;;;7.00;77.30;;;;;;5045995;28;82612;-39
2022/12/12 08:17:21;;;;;;;;;;;7.00;77.30;;;;;;5045698;28;82825;-39
2022/12/12 08:19:47;;;;;;;;;;;7.00;77.40;;;;;;5045783;28;82224;-39
2022/12/12 08:22:12;;;;;;;;;;;7.00;77.30;;;;;;5045215;28;83017;-39
2022/12/12 08:24:38;;;;;;;;;;;7.00;77.30;;;;;;5045556;28;84125;-39
2022/12/12 08:27:04;;;;;;;;;;;7.00;77.20;;;;;;5048427;28;82052;-39
2022/12/12 08:29:29;;;;;;;;;;;7.00;77.20;;;;;;5045860;27;83000;-38
2022/12/12 08:31:55;;;;;;;;;;;7.00;77.30;;;;;;5049115;28;81993;-39
2022/12/12 08:34:20;;;;;;;;;;;7.00;77.30;;;;;;5049089;28;82381;-39
2022/12/12 08:36:46;;;;;;;;;;;7.00;77.30;;;;;;5048883;28;83073;-39
2022/12/12 08:39:14;;;;;;;;;;;7.00;77.20;;;;;;5049787;28;81322;-39
2022/12/12 08:41:41;;;;;;;;;;;7.00;77.20;;;;;;5049011;28;81979;-39
2022/12/12 08:44:07;;;;;;;;;;;7.00;77.20;;;;;;5048319;27;84634;-39
2022/12/12 08:46:33;;;;;;;;;;;7.00;77.20;;;;;;5050774;27;82940;-39
2022/12/12 08:48:58;;;;;;;;;;;7.00;77.30;;;;;;5048673;28;82744;-39
2022/12/12 08:51:24;;;;;;;;;;;6.90;77.30;;;;;;5048808;28;82092;-39
2022/12/12 08:53:50;;;;;;;;;;;6.90;77.40;;;;;;5048757;28;82357;-39
2022/12/12 08:56:16;;;;;;;;;;;6.90;77.40;;;;;;5048510;28;83148;-40
2022/12/12 08:58:42;;;;;;;;;;;6.90;77.30;;;;;;5048507;28;82113;-39
2022/12/12 09:01:26;;;;;;;;;;;6.90;77.20;;;;;;5048793;28;82230;-39
2022/12/12 09:03:52;;;;;;;;;;;6.90;77.10;;;;;;5049008;28;82114;-39
2022/12/12 09:06:18;;;;;;;;;;;6.90;77.00;;;;;;5048760;28;81651;-39
2022/12/12 09:08:43;;;;;;;;;;;7.00;77.10;;;;;;5051051;28;82920;-38
2022/12/12 09:11:09;;;;;;;;;;;7.00;77.00;;;;;;5047513;28;83612;-39
2022/12/12 09:13:35;;;;;;;;;;;6.90;77.40;;;;;;5048398;28;84999;-38
2022/12/12 09:16:00;;;;;;;;;;;7.00;77.00;;;;;;5048264;28;83194;-38
2022/12/12 09:18:26;;;;;;;;;;;6.90;77.00;;;;;;5048559;28;82126;-38
2022/12/12 09:20:53;;;;;;;;;;;7.00;77.00;;;;;;5048730;28;82465;-39
2022/12/12 09:23:19;;;;;;;;;;;6.90;76.90;;;;;;5048102;28;83149;-39
2022/12/12 09:25:45;;;;;;;;;;;6.90;76.70;;;;;;5048210;28;81988;-38
2022/12/12 09:28:11;;;;;;;;;;;6.90;76.90;;;;;;5048673;28;82815;-38
2022/12/12 09:30:37;;;;;;;;;;;6.90;77.00;;;;;;5050850;28;82866;-39
2022/12/12 09:33:03;;;;;;;;;;;6.90;77.00;;;;;;5048204;28;82400;-38
2022/12/12 09:35:28;;;;;;;;;;;6.90;76.90;;;;;;5047394;28;84062;-39
2022/12/12 09:37:54;;;;;;;;;;;6.90;77.10;;;;;;5048175;28;82120;-39
2022/12/12 09:40:22;;;;;;;;;;;6.90;77.10;;;;;;5047691;27;82301;-38
2022/12/12 09:42:49;;;;;;;;;;;6.80;77.20;;;;;;5047909;28;81968;-39
2022/12/12 09:45:15;;;;;;;;;;;6.80;77.20;;;;;;5047701;28;82635;-39
2022/12/12 09:47:41;;;;;;;;;;;6.90;77.10;;;;;;5047281;28;82483;-39
2022/12/12 09:50:13;;;;;;;;;;;6.80;77.20;;;;;;5047709;28;82969;-39
2022/12/12 09:52:39;;;;;;;;;;;6.90;77.40;;;;;;5051093;27;81094;-39
2022/12/12 09:55:40;;;;;;;;;;;6.90;77.20;;;;;;5047416;27;82593;-38
2022/12/12 09:58:18;;;;;;;;;;;6.80;77.40;;;;;;4984402;28;82138;-38
2022/12/12 10:00:47;;;;;;;;;;;6.80;77.30;;;;;;5038982;28;82977;-39
2022/12/12 10:03:21;;;;;;;;;;;6.80;77.40;;;;;;5047602;27;83031;-38
2022/12/12 10:06:07;;;;;;;;;;;6.80;77.50;;;;;;5047733;28;82032;-39
2022/12/12 10:08:47;;;;;;;;;;;6.80;77.60;;;;;;5047536;28;82755;-39
2022/12/12 10:14:02;;;;;;;;;;;6.80;77.40;;;;;;5047568;28;81999;-38
2022/12/12 10:16:28;;;;;;;;;;;6.70;77.60;;;;;;5050192;28;82440;-39
2022/12/12 10:18:56;;;;;;;;;;;6.70;77.70;;;;;;5048070;28;81317;-39
2022/12/12 10:21:26;;;;;;;;;;;6.70;77.60;;;;;;5047519;28;81992;-39
2022/12/12 10:24:08;;;;;;;;;;;6.70;77.60;;;;;;5046936;28;83151;-39
2022/12/12 10:26:34;;;;;;;;;;;6.70;77.40;;;;;;5046274;28;82972;-39
2022/12/12 10:29:20;;;;;;;;;;;6.70;77.50;;;;;;5047349;28;83176;-38
2022/12/12 10:32:08;;;;;;;;;;;6.80;77.50;;;;;;5046477;28;82169;-39
2022/12/12 10:34:37;;;;;;;;;;;6.80;77.50;;;;;;5038734;28;81971;-39
2022/12/12 10:37:06;;;;;;;;;;;6.70;77.40;;;;;;5046768;28;82727;-38
2022/12/12 10:39:50;;;;;;;;;;;6.70;77.50;;;;;;5049812;28;83350;-38
2022/12/12 10:42:21;;;;;;;;;;;6.70;77.70;;;;;;5047269;28;82361;-39
2022/12/12 10:45:19;;;;;;;;;;;6.70;77.70;;;;;;5047385;27;82083;-38
2022/12/12 10:47:44;;;;;;;;;;;6.70;77.80;;;;;;5011958;28;82265;-39
2022/12/12 10:50:10;;;;;;;;;;;6.70;77.80;;;;;;5047172;28;82498;-39
2022/12/12 10:52:36;;;;;;;;;;;6.70;77.60;;;;;;5045146;27;84041;-39
2022/12/12 10:55:02;;;;;;;;;;;6.70;77.70;;;;;;5046761;28;81916;-38
2022/12/12 10:57:32;;;;;;;;;;;6.70;77.80;;;;;;5047054;28;82016;-39
2022/12/12 10:59:58;;;;;;;;;;;6.70;77.80;;;;;;5048836;28;81977;-38
2022/12/12 11:02:37;;;;;;;;;;;6.70;77.80;;;;;;5047007;28;82628;-39
2022/12/12 11:05:06;;;;;;;;;;;6.70;77.80;;;;;;5046423;28;82914;-38
2022/12/12 11:07:35;;;;;;;;;;;6.70;78.00;;;;;;5046644;28;82073;-38
2022/12/12 11:10:01;;;;;;;;;;;6.70;77.90;;;;;;5046840;27;82401;-39
2022/12/12 11:12:33;;;;;;;;;;;6.70;77.90;;;;;;5046162;28;83165;-39
2022/12/12 11:15:11;;;;;;;;;;;6.70;78.50;;;;;;5046632;28;82057;-38
2022/12/12 11:17:38;;;;;;;;;;;6.70;77.90;;;;;;5046191;28;82895;-39
2022/12/12 11:20:06;;;;;;;;;;;6.70;78.10;;;;;;5046430;28;83002;-38
2022/12/12 11:22:32;;;;;;;;;;;6.60;77.70;;;;;;5049340;28;81961;-39
2022/12/12 11:24:57;;;;;;;;;;;6.60;77.80;;;;;;5045725;28;84086;-39
2022/12/12 11:27:31;;;;;;;;;;;6.60;78.10;;;;;;5046500;28;82142;-39
2022/12/12 11:29:56;;;;;;;;;;;6.60;77.80;;;;;;5046386;28;82544;-38
2022/12/12 11:32:27;;;;;;;;;;;6.70;78.20;;;;;;5045722;28;84475;-39
2022/12/12 11:34:56;;;;;;;;;;;6.70;77.80;;;;;;5047005;28;81329;-39
2022/12/12 11:37:23;;;;;;;;;;;6.60;78.10;;;;;;5046543;28;82039;-39
2022/12/12 11:39:50;;;;;;;;;;;6.60;78.10;;;;;;5045991;28;82244;-38
2022/12/12 11:42:19;;;;;;;;;;;6.70;78.00;;;;;;5045625;28;82866;-39
2022/12/12 11:44:45;;;;;;;;;;;6.70;78.20;;;;;;5048238;28;82423;-39
2022/12/12 11:47:19;;;;;;;;;;;6.60;78.10;;;;;;5045357;28;82191;-39
2022/12/12 11:49:45;;;;;;;;;;;6.70;78.20;;;;;;5046146;28;82656;-39
2022/12/12 11:52:18;;;;;;;;;;;6.70;78.20;;;;;;5045315;28;83547;-38
2022/12/12 11:54:44;;;;;;;;;;;6.60;78.30;;;;;;5046139;28;82058;-38
2022/12/12 11:57:12;;;;;;;;;;;6.60;78.40;;;;;;5046245;28;82239;-38
2022/12/12 11:59:40;;;;;;;;;;;6.60;78.10;;;;;;5046365;28;82590;-39
2022/12/12 12:02:08;;;;;;;;;;;6.60;78.20;;;;;;5046027;28;82087;-38
2022/12/12 12:04:52;;;;;;;;;;;6.60;78.10;;;;;;5048362;27;81852;-38
2022/12/12 12:07:36;;;;;;;;;;;6.60;78.20;;;;;;5051380;28;83893;-38
2022/12/12 12:10:10;;;;;;;;;;;6.60;78.50;;;;;;5049690;28;82335;-39
2022/12/12 12:12:41;;;;;;;;;;;6.60;78.30;;;;;;5049251;28;83121;-39
2022/12/12 12:15:16;;;;;;;;;;;6.60;78.40;;;;;;5049230;28;82064;-39
2022/12/12 12:18:02;;;;;;;;;;;6.60;78.20;;;;;;5049551;28;82021;-38
2022/12/12 12:20:31;;;;;;;;;;;6.60;78.30;;;;;;5049559;28;83118;-39
2022/12/12 12:22:59;;;;;;;;;;;6.60;78.10;;;;;;5049398;28;82123;-38
2022/12/12 12:25:30;;;;;;;;;;;6.70;78.20;;;;;;5049640;28;82548;-39
2022/12/12 12:28:04;;;;;;;;;;;6.60;78.30;;;;;;5048845;28;83041;-39
2022/12/12 12:30:35;;;;;;;;;;;6.60;78.40;;;;;;5052044;28;81978;-38
2022/12/12 12:33:00;;;;;;;;;;;6.60;78.40;;;;;;5048355;28;83955;-39
2022/12/12 12:35:29;;;;;;;;;;;6.60;78.50;;;;;;5049260;28;81951;-39
2022/12/12 12:38:07;;;;;;;;;;;6.60;78.30;;;;;;5048808;28;83990;-39
2022/12/12 12:40:51;;;;;;;;;;;6.60;78.40;;;;;;5048534;28;84709;-39
2022/12/12 12:43:22;;;;;;;;;;;6.60;78.30;;;;;;5049038;28;82147;-39
2022/12/12 12:45:56;;;;;;;;;;;6.60;78.10;;;;;;5049029;28;82594;-39
2022/12/12 12:48:36;;;;;;;;;;;6.60;78.20;;;;;;5048083;28;82083;-38
2022/12/12 12:51:08;;;;;;;;;;;6.60;78.50;;;;;;5049038;28;81379;-39
2022/12/12 12:53:33;;;;;;;;;;;6.60;78.40;;;;;;5051358;28;81955;-38
2022/12/12 12:56:01;;;;;;;;;;;6.60;78.50;;;;;;5048993;28;81947;-38
2022/12/12 12:58:30;;;;;;;;;;;6.60;78.80;;;;;;5048159;28;82775;-39
2022/12/12 13:01:07;;;;;;;;;;;6.60;78.60;;;;;;5048429;28;84327;-38
2022/12/12 13:03:35;;;;;;;;;;;6.60;78.60;;;;;;5048669;28;81743;-39
2022/12/12 13:06:03;;;;;;;;;;;6.60;78.40;;;;;;5048554;28;81997;-39
2022/12/12 13:08:43;;;;;;;;;;;6.60;78.60;;;;;;5047958;28;84281;-39
2022/12/12 13:11:16;;;;;;;;;;;6.60;78.40;;;;;;5048854;28;81988;-39
2022/12/12 13:13:43;;;;;;;;;;;6.60;78.90;;;;;;5051093;28;82465;-38
2022/12/12 13:16:17;;;;;;;;;;;6.60;78.90;;;;;;5048218;28;81286;-39
2022/12/12 13:18:44;;;;;;;;;;;6.50;78.90;;;;;;5048367;28;81817;-39
2022/12/12 13:21:23;;;;;;;;;;;6.50;78.70;;;;;;5048062;28;84503;-39
2022/12/12 13:23:55;;;;;;;;;;;6.50;78.90;;;;;;5047481;28;83665;-39
2022/12/12 13:26:40;;;;;;;;;;;6.60;78.80;;;;;;5048298;28;83556;-39
2022/12/12 13:29:26;;;;;;;;;;;6.60;78.80;;;;;;5036298;28;82626;-38
2022/12/12 13:32:04;;;;;;;;;;;6.50;78.80;;;;;;5047518;28;81989;-39
2022/12/12 13:34:29;;;;;;;;;;;6.60;78.80;;;;;;5048279;28;82769;-39
2022/12/12 13:36:56;;;;;;;;;;;6.50;79.00;;;;;;5050699;28;83051;-39
2022/12/12 13:39:26;;;;;;;;;;;6.50;79.10;;;;;;5048126;28;82955;-39
2022/12/12 13:41:53;;;;;;;;;;;6.50;79.10;;;;;;5048576;28;82224;-38
2022/12/12 13:44:34;;;;;;;;;;;6.50;79.00;;;;;;5047507;28;82042;-38
2022/12/12 13:47:00;;;;;;;;;;;6.50;78.90;;;;;;5047574;28;82062;-39
2022/12/12 13:49:37;;;;;;;;;;;6.50;78.90;;;;;;5047012;28;84062;-38
2022/12/12 13:52:21;;;;;;;;;;;6.50;78.90;;;;;;5048074;28;81834;-39
2022/12/12 13:54:47;;;;;;;;;;;6.50;79.00;;;;;;5047692;28;83797;-39
2022/12/12 13:57:19;;;;;;;;;;;6.50;79.00;;;;;;5047725;28;83175;-39
2022/12/12 13:59:56;;;;;;;;;;;6.50;78.90;;;;;;5050466;28;81981;-39
2022/12/12 14:02:28;;;;;;;;;;;6.60;79.20;;;;;;5047655;28;83078;-39
2022/12/12 14:05:09;;;;;;;;;;;6.60;78.90;;;;;;5047853;28;82075;-38
2022/12/12 14:07:35;;;;;;;;;;;6.50;78.90;;;;;;5048161;28;82215;-39
2022/12/12 14:10:01;;;;;;;;;;;6.60;79.00;;;;;;5047154;28;83105;-39
2022/12/12 14:12:29;;;;;;;;;;;6.60;79.20;;;;;;5047362;28;82079;-39
2022/12/12 14:14:59;;;;;;;;;;;6.60;79.00;;;;;;5046765;28;83523;-39
2022/12/12 14:17:26;;;;;;;;;;;6.50;79.20;;;;;;5047290;28;83125;-38
2022/12/12 14:19:53;;;;;;;;;;;6.50;79.10;;;;;;5047334;28;82119;-39
2022/12/12 14:22:26;;;;;;;;;;;6.50;79.10;;;;;;5050031;28;81922;-39
2022/12/12 14:25:17;;;;;;;;;;;6.50;79.20;;;;;;5047035;28;82015;-39
2022/12/12 14:27:48;;;;;;;;;;;6.50;79.30;;;;;;5046239;27;82291;-38
2022/12/12 14:30:23;;;;;;;;;;;6.50;79.30;;;;;;5047215;28;83080;-39
2022/12/12 14:32:48;;;;;;;;;;;6.50;79.20;;;;;;5047719;28;81309;-39
2022/12/12 14:35:40;;;;;;;;;;;6.50;79.20;;;;;;5046989;28;81937;-39
2022/12/12 14:38:05;;;;;;;;;;;6.50;79.20;;;;;;5047282;28;82775;-39
2022/12/12 14:40:32;;;;;;;;;;;6.50;79.40;;;;;;5046590;28;83020;-39
2022/12/12 14:43:00;;;;;;;;;;;6.60;79.20;;;;;;5046843;28;84865;-38
2022/12/12 14:45:31;;;;;;;;;;;6.50;79.00;;;;;;5049095;28;84345;-39
2022/12/12 14:48:19;;;;;;;;;;;6.50;79.30;;;;;;5046164;28;82226;-39
2022/12/12 14:50:52;;;;;;;;;;;6.50;79.30;;;;;;5037835;28;84366;-38
2022/12/12 14:53:21;;;;;;;;;;;6.50;79.40;;;;;;5046839;27;81983;-39
2022/12/12 14:55:48;;;;;;;;;;;6.50;79.40;;;;;;5046512;28;83401;-39
2022/12/12 14:58:16;;;;;;;;;;;6.50;79.30;;;;;;5046827;28;83750;-39